sensor_id;sensor_type;location;lat;lon;timestamp;P1;durP1;ratioP1;P2;durP2;ratioP2
43337;SDS011;28933;52.492;13.434;2023-08-20T00:02:05;12.60;;;9.13;;
43337;SDS011;28933;52.492;13.434;2023-08-20T00:04:54;12.88;;;9.68;;
43337;SDS011;28933;52.492;13.434;2023-08-20T00:07:42;13.15;;;9.38;;
43337;SDS011;28933;52.492;13.434;2023-08-20T00:10:28;13.15;;;10.45;;
43337;SDS011;28933;52.492;13.434;2023-08-20T00:13:14;13.38;;;9.73;;
43337;SDS011;28933;52.492;13.434;2023-08-20T00:16:00;10.82;;;9.15;;
43337;SDS011;28933;52.492;13.434;2023-08-20T00:18:47;11.40;;;9.48;;
43337;SDS011;28933;52.492;13.434;2023-08-20T00:21:33;11.13;;;8.93;;
43337;SDS011;28933;52.492;13.434;2023-08-20T00:24:20;10.68;;;8.52;;
43337;SDS011;28933;52.492;13.434;2023-08-20T00:27:06;11.85;;;8.23;;
43337;SDS011;28933;52.492;13.434;2023-08-20T00:29:52;12.07;;;9.00;;
43337;SDS011;28933;52.492;13.434;2023-08-20T00:32:38;15.88;;;9.88;;
43337;SDS011;28933;52.492;13.434;2023-08-20T00:35:24;12.93;;;8.43;;
43337;SDS011;28933;52.492;13.434;2023-08-20T00:38:10;11.50;;;9.30;;
43337;SDS011;28933;52.492;13.434;2023-08-20T00:40:56;11.48;;;9.05;;
43337;SDS011;28933;52.492;13.434;2023-08-20T00:43:42;11.82;;;8.85;;
43337;SDS011;28933;52.492;13.434;2023-08-20T00:46:27;11.40;;;8.77;;
43337;SDS011;28933;52.492;13.434;2023-08-20T00:49:14;12.07;;;8.50;;
43337;SDS011;28933;52.492;13.434;2023-08-20T00:52:00;11.45;;;8.73;;
43337;SDS011;28933;52.492;13.434;2023-08-20T00:54:47;11.43;;;8.75;;
43337;SDS011;28933;52.492;13.434;2023-08-20T00:57:33;12.82;;;8.60;;
43337;SDS011;28933;52.492;13.434;2023-08-20T01:00:20;13.70;;;9.30;;
43337;SDS011;28933;52.492;13.434;2023-08-20T01:03:08;14.02;;;9.07;;
43337;SDS011;28933;52.492;13.434;2023-08-20T01:05:57;12.32;;;8.73;;
43337;SDS011;28933;52.492;13.434;2023-08-20T01:09:11;12.45;;;8.50;;
43337;SDS011;28933;52.492;13.434;2023-08-20T01:12:08;11.50;;;8.98;;
43337;SDS011;28933;52.492;13.434;2023-08-20T01:14:55;11.93;;;8.38;;
43337;SDS011;28933;52.492;13.434;2023-08-20T01:17:41;14.98;;;9.68;;
43337;SDS011;28933;52.492;13.434;2023-08-20T01:20:30;9.80;;;8.10;;
43337;SDS011;28933;52.492;13.434;2023-08-20T01:23:29;7.95;;;6.88;;
43337;SDS011;28933;52.492;13.434;2023-08-20T01:26:56;8.95;;;7.82;;
43337;SDS011;28933;52.492;13.434;2023-08-20T01:29:54;10.45;;;7.78;;
43337;SDS011;28933;52.492;13.434;2023-08-20T01:32:41;11.32;;;7.82;;
43337;SDS011;28933;52.492;13.434;2023-08-20T01:35:27;12.55;;;7.90;;
43337;SDS011;28933;52.492;13.434;2023-08-20T01:38:13;9.95;;;7.75;;
43337;SDS011;28933;52.492;13.434;2023-08-20T01:40:59;10.77;;;8.00;;
43337;SDS011;28933;52.492;13.434;2023-08-20T01:43:45;11.02;;;7.75;;
43337;SDS011;28933;52.492;13.434;2023-08-20T01:46:31;10.13;;;7.45;;
43337;SDS011;28933;52.492;13.434;2023-08-20T01:49:17;10.95;;;8.13;;
43337;SDS011;28933;52.492;13.434;2023-08-20T01:52:03;10.77;;;7.22;;
43337;SDS011;28933;52.492;13.434;2023-08-20T01:54:49;8.60;;;7.05;;
43337;SDS011;28933;52.492;13.434;2023-08-20T01:57:35;14.27;;;9.70;;
43337;SDS011;28933;52.492;13.434;2023-08-20T02:00:22;8.25;;;7.25;;
43337;SDS011;28933;52.492;13.434;2023-08-20T02:03:08;10.25;;;7.68;;
43337;SDS011;28933;52.492;13.434;2023-08-20T02:05:55;13.45;;;8.35;;
43337;SDS011;28933;52.492;13.434;2023-08-20T02:08:41;8.65;;;6.72;;
43337;SDS011;28933;52.492;13.434;2023-08-20T02:11:27;11.30;;;8.20;;
43337;SDS011;28933;52.492;13.434;2023-08-20T02:14:13;11.00;;;8.27;;
43337;SDS011;28933;52.492;13.434;2023-08-20T02:16:58;8.65;;;6.45;;
43337;SDS011;28933;52.492;13.434;2023-08-20T02:19:44;13.80;;;8.10;;
43337;SDS011;28933;52.492;13.434;2023-08-20T02:22:30;11.75;;;7.93;;
43337;SDS011;28933;52.492;13.434;2023-08-20T02:25:16;13.00;;;7.60;;
43337;SDS011;28933;52.492;13.434;2023-08-20T02:28:02;9.57;;;7.35;;
43337;SDS011;28933;52.492;13.434;2023-08-20T02:30:48;10.45;;;7.28;;
43337;SDS011;28933;52.492;13.434;2023-08-20T02:33:34;9.75;;;7.38;;
43337;SDS011;28933;52.492;13.434;2023-08-20T02:36:20;10.00;;;7.57;;
43337;SDS011;28933;52.492;13.434;2023-08-20T02:39:06;11.23;;;7.80;;
43337;SDS011;28933;52.492;13.434;2023-08-20T02:41:53;12.65;;;7.30;;
43337;SDS011;28933;52.492;13.434;2023-08-20T02:44:39;10.63;;;7.82;;
43337;SDS011;28933;52.492;13.434;2023-08-20T02:47:25;11.38;;;7.75;;
43337;SDS011;28933;52.492;13.434;2023-08-20T02:50:11;10.70;;;8.30;;
43337;SDS011;28933;52.492;13.434;2023-08-20T02:52:57;12.85;;;7.43;;
43337;SDS011;28933;52.492;13.434;2023-08-20T02:55:43;10.57;;;7.75;;
43337;SDS011;28933;52.492;13.434;2023-08-20T02:58:29;9.35;;;7.25;;
43337;SDS011;28933;52.492;13.434;2023-08-20T03:01:18;10.65;;;8.90;;
43337;SDS011;28933;52.492;13.434;2023-08-20T03:04:06;12.32;;;7.20;;
43337;SDS011;28933;52.492;13.434;2023-08-20T03:06:51;14.65;;;8.38;;
43337;SDS011;28933;52.492;13.434;2023-08-20T03:09:37;10.32;;;7.65;;
43337;SDS011;28933;52.492;13.434;2023-08-20T03:12:23;12.70;;;7.40;;
43337;SDS011;28933;52.492;13.434;2023-08-20T03:15:09;16.52;;;7.32;;
43337;SDS011;28933;52.492;13.434;2023-08-20T03:17:55;10.38;;;7.07;;
43337;SDS011;28933;52.492;13.434;2023-08-20T03:20:41;10.05;;;7.65;;
43337;SDS011;28933;52.492;13.434;2023-08-20T03:23:27;11.73;;;8.15;;
43337;SDS011;28933;52.492;13.434;2023-08-20T03:26:14;9.23;;;6.90;;
43337;SDS011;28933;52.492;13.434;2023-08-20T03:29:00;10.85;;;7.43;;
43337;SDS011;28933;52.492;13.434;2023-08-20T03:31:46;11.95;;;8.00;;
43337;SDS011;28933;52.492;13.434;2023-08-20T03:34:32;9.13;;;6.82;;
43337;SDS011;28933;52.492;13.434;2023-08-20T03:37:17;9.93;;;7.07;;
43337;SDS011;28933;52.492;13.434;2023-08-20T03:40:03;10.63;;;7.38;;
43337;SDS011;28933;52.492;13.434;2023-08-20T03:42:50;11.02;;;7.38;;
43337;SDS011;28933;52.492;13.434;2023-08-20T03:45:36;12.88;;;7.13;;
43337;SDS011;28933;52.492;13.434;2023-08-20T03:48:22;8.65;;;6.95;;
43337;SDS011;28933;52.492;13.434;2023-08-20T03:51:08;9.48;;;6.90;;
43337;SDS011;28933;52.492;13.434;2023-08-20T03:53:53;10.85;;;7.40;;
43337;SDS011;28933;52.492;13.434;2023-08-20T03:56:39;9.93;;;6.07;;
43337;SDS011;28933;52.492;13.434;2023-08-20T03:59:25;9.50;;;6.80;;
43337;SDS011;28933;52.492;13.434;2023-08-20T04:02:11;10.95;;;7.28;;
43337;SDS011;28933;52.492;13.434;2023-08-20T04:04:57;10.02;;;7.00;;
43337;SDS011;28933;52.492;13.434;2023-08-20T04:07:43;11.35;;;7.03;;
43337;SDS011;28933;52.492;13.434;2023-08-20T04:10:29;11.93;;;7.35;;
43337;SDS011;28933;52.492;13.434;2023-08-20T04:13:16;11.70;;;7.63;;
43337;SDS011;28933;52.492;13.434;2023-08-20T04:16:02;11.85;;;7.30;;
43337;SDS011;28933;52.492;13.434;2023-08-20T04:18:48;10.43;;;7.53;;
43337;SDS011;28933;52.492;13.434;2023-08-20T04:21:34;10.02;;;7.25;;
43337;SDS011;28933;52.492;13.434;2023-08-20T04:24:20;10.38;;;6.97;;
43337;SDS011;28933;52.492;13.434;2023-08-20T04:27:06;12.88;;;8.02;;
43337;SDS011;28933;52.492;13.434;2023-08-20T04:29:52;10.35;;;8.20;;
43337;SDS011;28933;52.492;13.434;2023-08-20T04:32:38;11.15;;;7.15;;
43337;SDS011;28933;52.492;13.434;2023-08-20T04:35:24;9.95;;;7.35;;
43337;SDS011;28933;52.492;13.434;2023-08-20T04:38:10;10.93;;;7.40;;
43337;SDS011;28933;52.492;13.434;2023-08-20T04:40:55;11.13;;;7.45;;
43337;SDS011;28933;52.492;13.434;2023-08-20T04:43:41;11.75;;;8.25;;
43337;SDS011;28933;52.492;13.434;2023-08-20T04:46:27;10.93;;;7.28;;
43337;SDS011;28933;52.492;13.434;2023-08-20T04:49:13;10.98;;;7.50;;
43337;SDS011;28933;52.492;13.434;2023-08-20T04:51:59;9.35;;;6.80;;
43337;SDS011;28933;52.492;13.434;2023-08-20T04:54:46;9.32;;;6.45;;
43337;SDS011;28933;52.492;13.434;2023-08-20T04:57:32;14.65;;;8.48;;
43337;SDS011;28933;52.492;13.434;2023-08-20T05:00:19;9.65;;;7.43;;
43337;SDS011;28933;52.492;13.434;2023-08-20T05:03:05;10.10;;;7.07;;
43337;SDS011;28933;52.492;13.434;2023-08-20T05:05:51;9.80;;;6.93;;
43337;SDS011;28933;52.492;13.434;2023-08-20T05:08:37;10.07;;;7.45;;
43337;SDS011;28933;52.492;13.434;2023-08-20T05:11:23;11.48;;;7.35;;
43337;SDS011;28933;52.492;13.434;2023-08-20T05:14:09;9.20;;;6.88;;
43337;SDS011;28933;52.492;13.434;2023-08-20T05:16:55;10.18;;;7.20;;
43337;SDS011;28933;52.492;13.434;2023-08-20T05:19:40;11.43;;;7.70;;
43337;SDS011;28933;52.492;13.434;2023-08-20T05:22:26;14.60;;;8.40;;
43337;SDS011;28933;52.492;13.434;2023-08-20T05:25:12;13.48;;;7.97;;
43337;SDS011;28933;52.492;13.434;2023-08-20T05:27:58;11.68;;;8.27;;
43337;SDS011;28933;52.492;13.434;2023-08-20T05:30:55;10.95;;;8.20;;
43337;SDS011;28933;52.492;13.434;2023-08-20T05:33:42;11.55;;;7.90;;
43337;SDS011;28933;52.492;13.434;2023-08-20T05:36:28;10.90;;;8.45;;
43337;SDS011;28933;52.492;13.434;2023-08-20T05:39:13;14.30;;;9.30;;
43337;SDS011;28933;52.492;13.434;2023-08-20T05:41:59;11.43;;;8.00;;
43337;SDS011;28933;52.492;13.434;2023-08-20T05:44:45;12.25;;;9.02;;
43337;SDS011;28933;52.492;13.434;2023-08-20T05:47:31;10.63;;;7.30;;
43337;SDS011;28933;52.492;13.434;2023-08-20T05:50:17;11.88;;;8.05;;
43337;SDS011;28933;52.492;13.434;2023-08-20T05:53:03;13.45;;;8.00;;
43337;SDS011;28933;52.492;13.434;2023-08-20T05:55:49;10.07;;;7.20;;
43337;SDS011;28933;52.492;13.434;2023-08-20T05:58:35;12.13;;;8.27;;
43337;SDS011;28933;52.492;13.434;2023-08-20T06:01:21;9.52;;;7.32;;
43337;SDS011;28933;52.492;13.434;2023-08-20T06:04:07;11.52;;;8.68;;
43337;SDS011;28933;52.492;13.434;2023-08-20T06:06:53;12.23;;;8.32;;
43337;SDS011;28933;52.492;13.434;2023-08-20T06:09:38;12.63;;;8.57;;
43337;SDS011;28933;52.492;13.434;2023-08-20T06:12:24;13.52;;;8.90;;
43337;SDS011;28933;52.492;13.434;2023-08-20T06:15:10;13.95;;;9.38;;
43337;SDS011;28933;52.492;13.434;2023-08-20T06:17:56;11.82;;;8.55;;
43337;SDS011;28933;52.492;13.434;2023-08-20T06:20:42;14.13;;;8.02;;
43337;SDS011;28933;52.492;13.434;2023-08-20T06:23:28;11.80;;;8.38;;
43337;SDS011;28933;52.492;13.434;2023-08-20T06:26:14;11.40;;;7.93;;
43337;SDS011;28933;52.492;13.434;2023-08-20T06:29:00;11.18;;;7.82;;
43337;SDS011;28933;52.492;13.434;2023-08-20T06:31:46;13.43;;;9.13;;
43337;SDS011;28933;52.492;13.434;2023-08-20T06:34:33;12.85;;;8.35;;
43337;SDS011;28933;52.492;13.434;2023-08-20T06:37:20;11.82;;;8.77;;
43337;SDS011;28933;52.492;13.434;2023-08-20T06:40:06;11.23;;;8.18;;
43337;SDS011;28933;52.492;13.434;2023-08-20T06:42:53;11.90;;;9.32;;
43337;SDS011;28933;52.492;13.434;2023-08-20T06:45:38;13.30;;;8.80;;
43337;SDS011;28933;52.492;13.434;2023-08-20T06:48:24;10.05;;;7.50;;
43337;SDS011;28933;52.492;13.434;2023-08-20T06:51:12;13.68;;;7.93;;
43337;SDS011;28933;52.492;13.434;2023-08-20T06:53:58;11.30;;;8.27;;
43337;SDS011;28933;52.492;13.434;2023-08-20T06:56:44;11.57;;;8.05;;
43337;SDS011;28933;52.492;13.434;2023-08-20T06:59:30;11.90;;;9.52;;
43337;SDS011;28933;52.492;13.434;2023-08-20T07:02:16;11.48;;;8.38;;
43337;SDS011;28933;52.492;13.434;2023-08-20T07:05:02;13.68;;;8.60;;
43337;SDS011;28933;52.492;13.434;2023-08-20T07:07:48;12.95;;;8.27;;
43337;SDS011;28933;52.492;13.434;2023-08-20T07:10:34;16.05;;;8.15;;
43337;SDS011;28933;52.492;13.434;2023-08-20T07:13:20;15.68;;;8.05;;
43337;SDS011;28933;52.492;13.434;2023-08-20T07:16:06;10.35;;;8.00;;
43337;SDS011;28933;52.492;13.434;2023-08-20T07:18:52;12.25;;;7.88;;
43337;SDS011;28933;52.492;13.434;2023-08-20T07:21:38;13.15;;;7.15;;
43337;SDS011;28933;52.492;13.434;2023-08-20T07:24:24;10.82;;;7.57;;
43337;SDS011;28933;52.492;13.434;2023-08-20T07:27:14;11.43;;;8.30;;
43337;SDS011;28933;52.492;13.434;2023-08-20T07:30:00;12.40;;;7.55;;
43337;SDS011;28933;52.492;13.434;2023-08-20T07:32:46;11.40;;;7.50;;
43337;SDS011;28933;52.492;13.434;2023-08-20T07:35:32;9.77;;;7.30;;
43337;SDS011;28933;52.492;13.434;2023-08-20T07:38:18;11.15;;;6.82;;
43337;SDS011;28933;52.492;13.434;2023-08-20T07:41:04;10.40;;;6.72;;
43337;SDS011;28933;52.492;13.434;2023-08-20T07:43:50;11.20;;;6.78;;
43337;SDS011;28933;52.492;13.434;2023-08-20T07:46:36;16.65;;;8.38;;
43337;SDS011;28933;52.492;13.434;2023-08-20T07:49:22;11.55;;;6.75;;
43337;SDS011;28933;52.492;13.434;2023-08-20T07:52:08;9.50;;;6.88;;
43337;SDS011;28933;52.492;13.434;2023-08-20T07:54:54;13.75;;;7.78;;
43337;SDS011;28933;52.492;13.434;2023-08-20T07:57:40;13.43;;;6.65;;
43337;SDS011;28933;52.492;13.434;2023-08-20T08:00:26;14.00;;;7.18;;
43337;SDS011;28933;52.492;13.434;2023-08-20T08:03:12;11.32;;;6.45;;
43337;SDS011;28933;52.492;13.434;2023-08-20T08:05:59;8.95;;;6.70;;
43337;SDS011;28933;52.492;13.434;2023-08-20T08:08:45;8.98;;;6.57;;
43337;SDS011;28933;52.492;13.434;2023-08-20T08:11:31;11.82;;;8.07;;
43337;SDS011;28933;52.492;13.434;2023-08-20T08:14:17;10.13;;;6.53;;
43337;SDS011;28933;52.492;13.434;2023-08-20T08:17:03;10.43;;;7.60;;
43337;SDS011;28933;52.492;13.434;2023-08-20T08:19:50;10.48;;;7.28;;
43337;SDS011;28933;52.492;13.434;2023-08-20T08:22:39;10.25;;;6.97;;
43337;SDS011;28933;52.492;13.434;2023-08-20T08:25:25;11.00;;;7.10;;
43337;SDS011;28933;52.492;13.434;2023-08-20T08:28:11;10.73;;;7.32;;
43337;SDS011;28933;52.492;13.434;2023-08-20T08:30:57;10.27;;;7.25;;
43337;SDS011;28933;52.492;13.434;2023-08-20T08:33:43;12.10;;;6.63;;
43337;SDS011;28933;52.492;13.434;2023-08-20T08:36:29;8.55;;;6.47;;
43337;SDS011;28933;52.492;13.434;2023-08-20T08:39:15;9.13;;;6.30;;
43337;SDS011;28933;52.492;13.434;2023-08-20T08:42:02;9.77;;;6.93;;
43337;SDS011;28933;52.492;13.434;2023-08-20T08:44:50;10.88;;;6.82;;
43337;SDS011;28933;52.492;13.434;2023-08-20T08:47:36;9.68;;;6.72;;
43337;SDS011;28933;52.492;13.434;2023-08-20T08:50:24;9.43;;;6.75;;
43337;SDS011;28933;52.492;13.434;2023-08-20T08:53:11;11.35;;;5.90;;
43337;SDS011;28933;52.492;13.434;2023-08-20T08:55:59;11.50;;;6.45;;
43337;SDS011;28933;52.492;13.434;2023-08-20T08:58:45;7.57;;;5.90;;
43337;SDS011;28933;52.492;13.434;2023-08-20T09:01:31;8.70;;;5.80;;
43337;SDS011;28933;52.492;13.434;2023-08-20T09:04:17;8.68;;;5.45;;
43337;SDS011;28933;52.492;13.434;2023-08-20T09:07:03;8.25;;;5.90;;
43337;SDS011;28933;52.492;13.434;2023-08-20T09:09:49;7.38;;;5.65;;
43337;SDS011;28933;52.492;13.434;2023-08-20T09:12:34;7.78;;;5.47;;
43337;SDS011;28933;52.492;13.434;2023-08-20T09:15:21;9.23;;;5.78;;
43337;SDS011;28933;52.492;13.434;2023-08-20T09:18:09;8.45;;;5.30;;
43337;SDS011;28933;52.492;13.434;2023-08-20T09:20:56;6.32;;;4.68;;
43337;SDS011;28933;52.492;13.434;2023-08-20T09:23:45;7.90;;;5.25;;
43337;SDS011;28933;52.492;13.434;2023-08-20T09:26:32;8.43;;;5.30;;
43337;SDS011;28933;52.492;13.434;2023-08-20T09:29:18;11.35;;;6.03;;
43337;SDS011;28933;52.492;13.434;2023-08-20T09:32:04;7.25;;;4.63;;
43337;SDS011;28933;52.492;13.434;2023-08-20T09:34:51;7.13;;;4.68;;
43337;SDS011;28933;52.492;13.434;2023-08-20T09:37:38;8.07;;;4.72;;
43337;SDS011;28933;52.492;13.434;2023-08-20T09:40:24;6.40;;;4.07;;
43337;SDS011;28933;52.492;13.434;2023-08-20T09:43:10;5.85;;;4.60;;
43337;SDS011;28933;52.492;13.434;2023-08-20T09:45:59;6.75;;;4.63;;
43337;SDS011;28933;52.492;13.434;2023-08-20T09:48:49;8.43;;;4.95;;
43337;SDS011;28933;52.492;13.434;2023-08-20T09:51:37;7.20;;;4.30;;
43337;SDS011;28933;52.492;13.434;2023-08-20T09:57:48;5.57;;;3.70;;
43337;SDS011;28933;52.492;13.434;2023-08-20T10:00:35;8.77;;;4.63;;
43337;SDS011;28933;52.492;13.434;2023-08-20T10:03:21;5.03;;;3.65;;
43337;SDS011;28933;52.492;13.434;2023-08-20T10:06:07;6.47;;;4.05;;
43337;SDS011;28933;52.492;13.434;2023-08-20T10:08:54;7.18;;;3.88;;
43337;SDS011;28933;52.492;13.434;2023-08-20T10:11:40;6.18;;;3.75;;
43337;SDS011;28933;52.492;13.434;2023-08-20T10:14:27;6.43;;;3.45;;
43337;SDS011;28933;52.492;13.434;2023-08-20T10:17:13;4.97;;;3.40;;
43337;SDS011;28933;52.492;13.434;2023-08-20T10:20:01;7.00;;;2.97;;
43337;SDS011;28933;52.492;13.434;2023-08-20T10:22:50;4.70;;;2.67;;
43337;SDS011;28933;52.492;13.434;2023-08-20T10:25:40;4.45;;;3.03;;
43337;SDS011;28933;52.492;13.434;2023-08-20T10:28:30;4.78;;;3.00;;
43337;SDS011;28933;52.492;13.434;2023-08-20T10:31:17;4.28;;;2.90;;
43337;SDS011;28933;52.492;13.434;2023-08-20T10:34:03;4.60;;;3.25;;
43337;SDS011;28933;52.492;13.434;2023-08-20T10:36:49;5.30;;;2.95;;
43337;SDS011;28933;52.492;13.434;2023-08-20T10:39:36;3.20;;;2.38;;
43337;SDS011;28933;52.492;13.434;2023-08-20T10:42:23;7.60;;;2.58;;
43337;SDS011;28933;52.492;13.434;2023-08-20T10:45:12;3.67;;;2.38;;
43337;SDS011;28933;52.492;13.434;2023-08-20T10:47:57;4.43;;;2.28;;
43337;SDS011;28933;52.492;13.434;2023-08-20T10:50:44;4.50;;;2.17;;
43337;SDS011;28933;52.492;13.434;2023-08-20T10:53:30;4.30;;;2.58;;
43337;SDS011;28933;52.492;13.434;2023-08-20T10:56:17;3.35;;;2.35;;
43337;SDS011;28933;52.492;13.434;2023-08-20T11:02:02;3.78;;;2.58;;
43337;SDS011;28933;52.492;13.434;2023-08-20T11:04:48;3.92;;;2.45;;
43337;SDS011;28933;52.492;13.434;2023-08-20T11:07:34;2.67;;;2.00;;
43337;SDS011;28933;52.492;13.434;2023-08-20T11:10:20;4.55;;;2.50;;
43337;SDS011;28933;52.492;13.434;2023-08-20T11:13:07;5.68;;;2.30;;
43337;SDS011;28933;52.492;13.434;2023-08-20T11:15:53;3.65;;;2.30;;
43337;SDS011;28933;52.492;13.434;2023-08-20T11:18:40;3.72;;;2.35;;
43337;SDS011;28933;52.492;13.434;2023-08-20T11:21:27;3.33;;;2.20;;
43337;SDS011;28933;52.492;13.434;2023-08-20T11:24:14;2.42;;;1.95;;
43337;SDS011;28933;52.492;13.434;2023-08-20T11:27:01;3.22;;;2.03;;
43337;SDS011;28933;52.492;13.434;2023-08-20T11:29:47;6.38;;;2.50;;
43337;SDS011;28933;52.492;13.434;2023-08-20T11:32:33;2.83;;;2.10;;
43337;SDS011;28933;52.492;13.434;2023-08-20T11:35:19;3.25;;;1.98;;
43337;SDS011;28933;52.492;13.434;2023-08-20T11:38:06;2.42;;;1.80;;
43337;SDS011;28933;52.492;13.434;2023-08-20T11:40:52;3.33;;;2.13;;
43337;SDS011;28933;52.492;13.434;2023-08-20T11:43:40;4.07;;;2.20;;
43337;SDS011;28933;52.492;13.434;2023-08-20T11:46:26;2.70;;;1.70;;
43337;SDS011;28933;52.492;13.434;2023-08-20T11:49:12;4.68;;;2.25;;
43337;SDS011;28933;52.492;13.434;2023-08-20T11:51:59;4.68;;;2.40;;
43337;SDS011;28933;52.492;13.434;2023-08-20T11:54:45;3.03;;;1.90;;
43337;SDS011;28933;52.492;13.434;2023-08-20T11:57:31;2.78;;;1.75;;
43337;SDS011;28933;52.492;13.434;2023-08-20T12:00:24;3.53;;;1.80;;
43337;SDS011;28933;52.492;13.434;2023-08-20T12:03:12;3.55;;;2.25;;
43337;SDS011;28933;52.492;13.434;2023-08-20T12:05:58;4.72;;;2.10;;
43337;SDS011;28933;52.492;13.434;2023-08-20T12:08:43;3.03;;;1.80;;
43337;SDS011;28933;52.492;13.434;2023-08-20T12:11:30;2.28;;;1.58;;
43337;SDS011;28933;52.492;13.434;2023-08-20T12:14:17;3.22;;;2.03;;
43337;SDS011;28933;52.492;13.434;2023-08-20T12:17:04;5.50;;;2.67;;
43337;SDS011;28933;52.492;13.434;2023-08-20T12:19:49;5.45;;;2.20;;
43337;SDS011;28933;52.492;13.434;2023-08-20T12:22:35;3.78;;;1.70;;
43337;SDS011;28933;52.492;13.434;2023-08-20T12:25:21;5.47;;;2.20;;
43337;SDS011;28933;52.492;13.434;2023-08-20T12:28:07;3.33;;;2.13;;
43337;SDS011;28933;52.492;13.434;2023-08-20T12:30:53;2.83;;;2.00;;
43337;SDS011;28933;52.492;13.434;2023-08-20T12:33:39;3.22;;;2.00;;
43337;SDS011;28933;52.492;13.434;2023-08-20T12:36:25;4.25;;;2.25;;
43337;SDS011;28933;52.492;13.434;2023-08-20T12:39:11;2.90;;;1.48;;
43337;SDS011;28933;52.492;13.434;2023-08-20T12:41:58;3.08;;;1.98;;
43337;SDS011;28933;52.492;13.434;2023-08-20T12:44:44;4.00;;;1.67;;
43337;SDS011;28933;52.492;13.434;2023-08-20T12:47:30;3.75;;;1.73;;
43337;SDS011;28933;52.492;13.434;2023-08-20T12:50:16;4.45;;;2.05;;
43337;SDS011;28933;52.492;13.434;2023-08-20T12:53:02;3.15;;;1.80;;
43337;SDS011;28933;52.492;13.434;2023-08-20T12:55:48;2.83;;;1.33;;
43337;SDS011;28933;52.492;13.434;2023-08-20T12:58:34;2.10;;;1.58;;
43337;SDS011;28933;52.492;13.434;2023-08-20T13:01:20;2.35;;;1.67;;
43337;SDS011;28933;52.492;13.434;2023-08-20T13:04:06;3.38;;;1.90;;
43337;SDS011;28933;52.492;13.434;2023-08-20T13:06:52;4.55;;;1.80;;
43337;SDS011;28933;52.492;13.434;2023-08-20T13:09:38;3.25;;;1.90;;
43337;SDS011;28933;52.492;13.434;2023-08-20T13:12:24;2.22;;;1.65;;
43337;SDS011;28933;52.492;13.434;2023-08-20T13:15:12;2.08;;;1.52;;
43337;SDS011;28933;52.492;13.434;2023-08-20T13:17:59;2.40;;;1.83;;
43337;SDS011;28933;52.492;13.434;2023-08-20T13:20:45;2.78;;;1.75;;
43337;SDS011;28933;52.492;13.434;2023-08-20T13:23:31;2.33;;;1.60;;
43337;SDS011;28933;52.492;13.434;2023-08-20T13:26:17;3.97;;;1.75;;
43337;SDS011;28933;52.492;13.434;2023-08-20T13:29:03;3.85;;;2.05;;
43337;SDS011;28933;52.492;13.434;2023-08-20T13:31:49;2.08;;;1.50;;
43337;SDS011;28933;52.492;13.434;2023-08-20T13:34:35;1.17;;;1.08;;
43337;SDS011;28933;52.492;13.434;2023-08-20T13:37:21;3.13;;;1.40;;
43337;SDS011;28933;52.492;13.434;2023-08-20T13:40:07;5.80;;;2.25;;
43337;SDS011;28933;52.492;13.434;2023-08-20T13:42:55;4.60;;;2.25;;
43337;SDS011;28933;52.492;13.434;2023-08-20T13:45:41;4.40;;;1.77;;
43337;SDS011;28933;52.492;13.434;2023-08-20T13:48:27;2.80;;;1.83;;
43337;SDS011;28933;52.492;13.434;2023-08-20T13:51:13;3.20;;;1.80;;
43337;SDS011;28933;52.492;13.434;2023-08-20T13:53:59;3.38;;;2.20;;
43337;SDS011;28933;52.492;13.434;2023-08-20T13:56:45;2.20;;;1.60;;
43337;SDS011;28933;52.492;13.434;2023-08-20T13:59:31;3.03;;;1.60;;
43337;SDS011;28933;52.492;13.434;2023-08-20T14:02:17;3.72;;;2.08;;
43337;SDS011;28933;52.492;13.434;2023-08-20T14:05:03;4.53;;;2.08;;
43337;SDS011;28933;52.492;13.434;2023-08-20T14:07:49;2.80;;;1.55;;
43337;SDS011;28933;52.492;13.434;2023-08-20T14:10:35;4.88;;;2.28;;
43337;SDS011;28933;52.492;13.434;2023-08-20T14:13:21;3.08;;;1.80;;
43337;SDS011;28933;52.492;13.434;2023-08-20T14:16:07;2.42;;;1.67;;
43337;SDS011;28933;52.492;13.434;2023-08-20T14:18:53;7.95;;;2.17;;
43337;SDS011;28933;52.492;13.434;2023-08-20T14:21:39;4.30;;;1.63;;
43337;SDS011;28933;52.492;13.434;2023-08-20T14:24:25;6.45;;;1.50;;
43337;SDS011;28933;52.492;13.434;2023-08-20T14:27:11;2.15;;;1.52;;
43337;SDS011;28933;52.492;13.434;2023-08-20T14:29:57;3.58;;;2.08;;
43337;SDS011;28933;52.492;13.434;2023-08-20T14:32:43;5.80;;;2.28;;
43337;SDS011;28933;52.492;13.434;2023-08-20T14:35:29;4.10;;;1.58;;
43337;SDS011;28933;52.492;13.434;2023-08-20T14:38:15;2.78;;;1.75;;
43337;SDS011;28933;52.492;13.434;2023-08-20T14:41:01;5.03;;;3.05;;
43337;SDS011;28933;52.492;13.434;2023-08-20T14:43:47;3.15;;;2.10;;
43337;SDS011;28933;52.492;13.434;2023-08-20T14:46:33;3.72;;;2.00;;
43337;SDS011;28933;52.492;13.434;2023-08-20T14:49:19;3.78;;;1.83;;
43337;SDS011;28933;52.492;13.434;2023-08-20T14:52:05;7.13;;;1.95;;
43337;SDS011;28933;52.492;13.434;2023-08-20T14:54:51;3.47;;;1.80;;
43337;SDS011;28933;52.492;13.434;2023-08-20T14:57:37;3.67;;;1.40;;
43337;SDS011;28933;52.492;13.434;2023-08-20T15:00:23;2.70;;;1.42;;
43337;SDS011;28933;52.492;13.434;2023-08-20T15:03:10;3.15;;;1.67;;
43337;SDS011;28933;52.492;13.434;2023-08-20T15:05:56;3.75;;;1.30;;
43337;SDS011;28933;52.492;13.434;2023-08-20T15:08:42;1.67;;;1.25;;
43337;SDS011;28933;52.492;13.434;2023-08-20T15:11:28;2.03;;;1.40;;
43337;SDS011;28933;52.492;13.434;2023-08-20T15:14:14;2.58;;;1.38;;
43337;SDS011;28933;52.492;13.434;2023-08-20T15:17:00;9.18;;;1.50;;
43337;SDS011;28933;52.492;13.434;2023-08-20T15:19:46;3.13;;;1.15;;
43337;SDS011;28933;52.492;13.434;2023-08-20T15:22:32;2.83;;;1.60;;
43337;SDS011;28933;52.492;13.434;2023-08-20T15:25:18;3.03;;;1.38;;
43337;SDS011;28933;52.492;13.434;2023-08-20T15:28:04;2.63;;;1.48;;
43337;SDS011;28933;52.492;13.434;2023-08-20T15:30:53;3.67;;;1.42;;
43337;SDS011;28933;52.492;13.434;2023-08-20T15:33:39;3.63;;;1.35;;
43337;SDS011;28933;52.492;13.434;2023-08-20T15:36:25;2.65;;;1.70;;
43337;SDS011;28933;52.492;13.434;2023-08-20T15:39:11;3.17;;;1.65;;
43337;SDS011;28933;52.492;13.434;2023-08-20T15:41:58;2.80;;;1.17;;
43337;SDS011;28933;52.492;13.434;2023-08-20T15:44:44;3.25;;;1.27;;
43337;SDS011;28933;52.492;13.434;2023-08-20T15:47:31;1.88;;;1.23;;
43337;SDS011;28933;52.492;13.434;2023-08-20T15:50:17;2.85;;;1.50;;
43337;SDS011;28933;52.492;13.434;2023-08-20T15:53:03;2.85;;;1.50;;
43337;SDS011;28933;52.492;13.434;2023-08-20T15:55:49;1.60;;;1.20;;
43337;SDS011;28933;52.492;13.434;2023-08-20T15:58:35;1.73;;;0.95;;
43337;SDS011;28933;52.492;13.434;2023-08-20T16:01:21;2.92;;;1.50;;
43337;SDS011;28933;52.492;13.434;2023-08-20T16:04:07;2.20;;;1.20;;
43337;SDS011;28933;52.492;13.434;2023-08-20T16:06:53;3.78;;;2.15;;
43337;SDS011;28933;52.492;13.434;2023-08-20T16:09:39;2.42;;;1.60;;
43337;SDS011;28933;52.492;13.434;2023-08-20T16:12:24;3.40;;;1.40;;
43337;SDS011;28933;52.492;13.434;2023-08-20T16:15:10;6.70;;;2.05;;
43337;SDS011;28933;52.492;13.434;2023-08-20T16:17:57;6.70;;;1.33;;
43337;SDS011;28933;52.492;13.434;2023-08-20T16:20:43;3.03;;;1.60;;
43337;SDS011;28933;52.492;13.434;2023-08-20T16:23:29;3.58;;;1.45;;
43337;SDS011;28933;52.492;13.434;2023-08-20T16:26:15;2.70;;;1.30;;
43337;SDS011;28933;52.492;13.434;2023-08-20T16:29:01;1.85;;;1.25;;